Time;durP1;ratioP1;P1;durP2;ratioP2;P2;SDS_P1;SDS_P2;PMS_P1;PMS_P2;Temp;Humidity;BMP_temperature;BMP_pressure;BME280_temperature;BME280_humidity;BME280_pressure;Samples;Min_cycle;Max_cycle;Signal;HPM_P1;HPM_P2
2021/12/28 00:00:15;;;;;;;78.80;39.75;;;76.90;2227.20;;;;;;5041132;28;20040;-81
2021/12/28 00:02:43;;;;;;;84.82;41.80;;;76.90;2227.20;;;;;;5042570;28;20032;-80
2021/12/28 00:05:09;;;;;;;72.70;37.13;;;76.90;2227.20;;;;;;5046101;28;20021;-81
2021/12/28 00:07:36;;;;;;;61.17;31.33;;;76.90;2227.20;;;;;;5046891;28;20025;-80
2021/12/28 00:10:04;;;;;;;40.00;21.90;;;76.90;2227.20;;;;;;5042644;28;20033;-80
2021/12/28 00:12:32;;;;;;;34.30;19.10;;;76.90;2227.20;;;;;;5042668;28;20096;-80
2021/12/28 00:18:04;;;;;;;27.63;14.85;;;76.90;2227.20;;;;;;5013283;28;20476;-79
2021/12/28 00:20:35;;;;;;;27.92;15.73;;;76.80;2227.20;;;;;;5001358;28;20029;-79
2021/12/28 00:23:03;;;;;;;27.00;14.75;;;76.80;2227.20;;;;;;5045406;28;20037;-79
2021/12/28 00:25:29;;;;;;;31.35;17.05;;;76.80;2227.20;;;;;;5007791;28;20115;-81
2021/12/28 00:27:55;;;;;;;35.63;20.63;;;76.80;2227.20;;;;;;5034367;28;20078;-81
2021/12/28 00:30:21;;;;;;;28.88;16.67;;;76.80;2227.20;;;;;;5029841;28;20151;-81
2021/12/28 00:32:52;;;;;;;23.60;16.10;;;76.80;2227.20;;;;;;5007032;28;20025;-79
2021/12/28 00:35:19;;;;;;;33.53;17.70;;;76.80;2227.20;;;;;;5029365;28;20046;-81
2021/12/28 00:37:45;;;;;;;31.00;16.90;;;52.10;2227.20;;;;;;4997021;28;20120;-81
2021/12/28 00:40:11;;;;;;;34.95;18.05;;;52.00;2227.20;;;;;;5031375;28;20125;-81
2021/12/28 00:42:37;;;;;;;31.77;15.88;;;52.10;2227.20;;;;;;5012816;28;20532;-81
2021/12/28 00:45:03;;;;;;;30.42;16.23;;;52.00;2227.20;;;;;;5016916;28;20108;-81
2021/12/28 00:47:29;;;;;;;32.22;17.17;;;52.10;2227.20;;;;;;5018514;28;20038;-81
2021/12/28 00:49:56;;;;;;;32.38;16.65;;;52.10;2227.20;;;;;;5007034;28;20026;-81
2021/12/28 00:52:22;;;;;;;26.50;15.57;;;76.80;2227.20;;;;;;4997084;28;20592;-81
2021/12/28 00:54:48;;;;;;;28.83;16.95;;;52.10;2227.20;;;;;;5009818;28;20070;-81
2021/12/28 00:57:14;;;;;;;31.02;18.20;;;52.10;2227.20;;;;;;5021962;28;20115;-81
2021/12/28 00:59:39;;;;;;;43.55;23.60;;;76.80;2227.20;;;;;;5034473;28;20029;-82
2021/12/28 01:02:05;;;;;;;44.90;22.40;;;76.80;2227.20;;;;;;5034648;28;20440;-82
2021/12/28 01:04:31;;;;;;;48.03;27.35;;;76.80;2227.20;;;;;;5035402;28;20087;-81
2021/12/28 01:06:58;;;;;;;50.67;27.70;;;76.80;2227.20;;;;;;5033142;28;20046;-81
2021/12/28 01:09:30;;;;;;;43.90;22.65;;;76.80;2227.20;;;;;;5033446;28;20029;-80
2021/12/28 01:11:59;;;;;;;50.10;26.95;;;76.80;2227.20;;;;;;5034458;28;20100;-81
2021/12/28 01:14:26;;;;;;;47.90;25.35;;;76.80;2227.20;;;;;;5034712;28;20053;-81
2021/12/28 01:16:52;;;;;;;43.35;25.17;;;76.80;2227.20;;;;;;5034428;28;20017;-82
2021/12/28 01:19:18;;;;;;;49.45;25.00;;;76.80;2227.20;;;;;;5034627;28;20526;-80
2021/12/28 01:21:44;;;;;;;56.72;29.48;;;76.80;2227.20;;;;;;5033103;28;20029;-81
2021/12/28 01:24:10;;;;;;;54.22;28.85;;;76.80;2227.20;;;;;;5033033;28;20115;-81
2021/12/28 01:26:36;;;;;;;62.05;30.77;;;52.10;2227.20;;;;;;5033327;28;20041;-81
2021/12/28 01:29:03;;;;;;;70.82;33.15;;;52.10;2227.20;;;;;;5032896;28;20057;-82
2021/12/28 01:31:29;;;;;;;67.40;31.58;;;52.10;2227.20;;;;;;5034740;28;20026;-82
2021/12/28 01:33:56;;;;;;;70.68;32.90;;;52.10;2227.20;;;;;;5034070;28;20093;-81
2021/12/28 01:36:22;;;;;;;90.43;41.17;;;76.80;2227.20;;;;;;5034212;28;20068;-82
2021/12/28 01:38:47;;;;;;;78.53;34.17;;;52.10;2227.20;;;;;;5033063;28;20067;-82
2021/12/28 01:41:13;;;;;;;79.22;36.05;;;76.80;2227.20;;;;;;5034285;28;20029;-81
2021/12/28 01:43:41;;;;;;;84.57;38.83;;;52.10;2227.20;;;;;;5033650;28;20057;-82
2021/12/28 01:46:07;;;;;;;94.20;38.80;;;52.10;2227.20;;;;;;5033630;28;20037;-81
2021/12/28 01:48:39;;;;;;;77.53;37.72;;;76.80;2227.20;;;;;;5053663;28;20067;-81
2021/12/28 01:51:21;;;;;;;82.45;39.00;;;76.80;2227.20;;;;;;5051364;28;20029;-81
2021/12/28 01:53:49;;;;;;;85.13;34.60;;;76.80;2227.20;;;;;;5054079;28;20107;-82
2021/12/28 01:56:20;;;;;;;86.57;36.80;;;76.80;2227.20;;;;;;5052314;28;20029;-81
2021/12/28 01:58:46;;;;;;;84.53;38.38;;;76.80;2227.20;;;;;;5033941;28;20032;-81
2021/12/28 02:01:13;;;;;;;101.30;43.50;;;76.80;2227.20;;;;;;5032699;28;20853;-82
2021/12/28 02:03:40;;;;;;;99.63;41.13;;;76.90;2227.20;;;;;;5031976;28;20069;-81
2021/12/28 02:06:07;;;;;;;87.47;41.70;;;76.90;2227.20;;;;;;5032272;28;20216;-80
2021/12/28 02:08:34;;;;;;;102.07;42.40;;;76.90;2227.20;;;;;;5047989;28;20691;-80
2021/12/28 02:11:00;;;;;;;94.15;44.45;;;76.90;2227.20;;;;;;5046397;28;20029;-80
2021/12/28 02:13:27;;;;;;;99.82;42.50;;;77.00;2227.20;;;;;;5031945;28;20494;-81
2021/12/28 02:15:56;;;;;;;90.78;39.58;;;76.90;2227.20;;;;;;5032426;28;20029;-81
2021/12/28 02:18:23;;;;;;;79.43;36.30;;;76.80;2227.20;;;;;;5032200;28;20740;-82
2021/12/28 02:20:50;;;;;;;86.35;39.58;;;76.80;2227.20;;;;;;5033693;28;20075;-81
2021/12/28 02:23:17;;;;;;;85.47;39.92;;;76.80;2227.20;;;;;;5033485;28;20056;-81
2021/12/28 02:25:44;;;;;;;68.03;35.50;;;76.80;2227.20;;;;;;5031715;28;20053;-82
2021/12/28 02:28:11;;;;;;;77.60;35.90;;;52.00;2227.20;;;;;;5032667;28;20026;-82
2021/12/28 02:30:39;;;;;;;64.90;31.92;;;76.80;2227.20;;;;;;5031809;28;20726;-81
2021/12/28 02:33:06;;;;;;;53.65;28.75;;;76.80;2227.20;;;;;;5033277;28;20526;-82
2021/12/28 02:35:32;;;;;;;56.05;28.65;;;76.80;2227.20;;;;;;5032822;28;20413;-81
2021/12/28 02:37:58;;;;;;;66.72;31.63;;;52.10;2227.20;;;;;;5033258;28;20189;-82
2021/12/28 02:40:28;;;;;;;58.28;28.25;;;52.10;2227.20;;;;;;5032837;28;20021;-82
2021/12/28 02:42:55;;;;;;;63.95;29.85;;;52.10;2227.20;;;;;;5031163;28;20029;-81
2021/12/28 02:45:24;;;;;;;63.72;29.83;;;52.10;2227.20;;;;;;5033083;28;20028;-81
2021/12/28 02:47:50;;;;;;;56.53;29.17;;;52.10;2227.20;;;;;;5047467;28;20028;-81
2021/12/28 02:50:22;;;;;;;63.45;30.35;;;52.00;2227.20;;;;;;5052938;28;20017;-81
2021/12/28 02:52:48;;;;;;;67.38;30.98;;;52.00;2227.20;;;;;;5051144;28;20033;-80
2021/12/28 02:55:17;;;;;;;70.78;31.30;;;51.90;2227.20;;;;;;5051756;28;20480;-82
2021/12/28 02:57:56;;;;;;;60.60;32.42;;;51.90;2227.20;;;;;;5051421;28;20082;-81
2021/12/28 03:01:09;;;;;;;78.32;34.25;;;52.00;1894.40;;;;;;5052296;28;20017;-81
2021/12/28 03:03:35;;;;;;;60.33;28.55;;;52.00;2227.20;;;;;;5030812;28;20044;-81
2021/12/28 03:06:04;;;;;;;65.53;31.45;;;52.00;1843.20;;;;;;5036283;28;20507;-81
2021/12/28 03:08:31;;;;;;;61.03;30.50;;;52.00;2227.20;;;;;;5034221;28;20430;-81
2021/12/28 03:10:58;;;;;;;70.78;32.95;;;52.10;2227.20;;;;;;5031643;28;20114;-80
2021/12/28 03:13:27;;;;;;;61.28;28.63;;;52.10;2227.20;;;;;;5032091;28;20025;-81
2021/12/28 03:15:53;;;;;;;56.22;27.58;;;52.00;2227.20;;;;;;5031286;28;20029;-80
2021/12/28 03:18:19;;;;;;;59.72;26.92;;;52.00;1843.20;;;;;;5034882;28;20021;-80
2021/12/28 03:20:45;;;;;;;51.80;27.30;;;52.10;2227.20;;;;;;5030664;28;20048;-80
2021/12/28 03:23:15;;;;;;;57.75;25.67;;;52.10;2227.20;;;;;;5031273;28;20401;-80
2021/12/28 03:25:41;;;;;;;55.17;27.42;;;52.00;2227.20;;;;;;5030403;28;20033;-79
2021/12/28 03:28:07;;;;;;;57.72;27.67;;;52.00;2227.20;;;;;;5032288;28;20021;-79
2021/12/28 03:30:33;;;;;;;60.47;29.58;;;52.00;2227.20;;;;;;5031104;28;20029;-79
2021/12/28 03:32:58;;;;;;;66.00;30.05;;;52.10;2227.20;;;;;;5032139;28;20060;-79
2021/12/28 03:35:25;;;;;;;64.90;32.58;;;52.00;2227.20;;;;;;5031892;28;20053;-79
2021/12/28 03:37:51;;;;;;;60.08;29.85;;;52.00;2227.20;;;;;;5032167;28;20101;-80
2021/12/28 03:40:16;;;;;;;62.88;31.38;;;52.00;2227.20;;;;;;5030479;28;20120;-79
2021/12/28 03:42:43;;;;;;;49.47;24.02;;;52.00;2227.20;;;;;;5031109;28;20040;-79
2021/12/28 03:45:10;;;;;;;57.28;29.85;;;52.00;2227.20;;;;;;5032079;28;20079;-79
2021/12/28 03:47:36;;;;;;;56.28;25.45;;;51.90;2227.20;;;;;;5031693;28;20156;-79
2021/12/28 03:50:05;;;;;;;52.10;26.30;;;52.00;2227.20;;;;;;5032107;28;20021;-80
2021/12/28 03:52:32;;;;;;;52.53;26.58;;;52.00;2227.20;;;;;;5030773;28;20037;-80
2021/12/28 03:54:58;;;;;;;63.38;30.15;;;52.00;2227.20;;;;;;5031963;28;20018;-80
2021/12/28 03:57:24;;;;;;;67.13;28.85;;;52.00;2227.20;;;;;;5030587;28;20032;-79
2021/12/28 03:59:49;;;;;;;55.50;27.77;;;51.90;2227.20;;;;;;5032181;28;20037;-82
2021/12/28 04:02:15;;;;;;;60.10;30.10;;;51.90;2227.20;;;;;;5030584;28;20466;-81
2021/12/28 04:04:41;;;;;;;61.60;30.67;;;51.90;2227.20;;;;;;5031558;28;20121;-81
2021/12/28 04:07:09;;;;;;;63.08;30.17;;;51.90;2227.20;;;;;;5030881;28;20132;-81
2021/12/28 04:12:17;;;;;;;64.68;31.60;;;51.90;2227.20;;;;;;5032221;28;20033;-82
2021/12/28 04:14:43;;;;;;;61.78;30.92;;;51.90;2227.20;;;;;;5034645;28;20033;-80
2021/12/28 04:17:08;;;;;;;62.63;29.65;;;51.80;2227.20;;;;;;5036586;28;20025;-81
2021/12/28 04:19:34;;;;;;;68.60;30.75;;;51.80;2227.20;;;;;;5058032;28;20039;-81
2021/12/28 04:22:00;;;;;;;63.58;33.38;;;51.80;2227.20;;;;;;5057536;28;20041;-80
2021/12/28 04:24:26;;;;;;;78.07;36.25;;;51.90;2227.20;;;;;;5036524;28;20465;-80
2021/12/28 04:26:51;;;;;;;79.95;36.00;;;51.90;2227.20;;;;;;5034167;28;20034;-80
2021/12/28 04:29:17;;;;;;;83.63;35.05;;;51.80;2227.20;;;;;;5035837;28;20152;-80
2021/12/28 04:31:43;;;;;;;81.97;33.20;;;51.90;1971.20;;;;;;5033737;28;20734;-80
2021/12/28 04:34:09;;;;;;;72.93;34.63;;;51.90;1894.40;;;;;;5031002;28;20700;-81
2021/12/28 04:36:35;;;;;;;83.13;37.75;;;51.90;1868.80;;;;;;5035579;28;20087;-81
2021/12/28 04:39:01;;;;;;;91.15;41.38;;;52.00;1971.20;;;;;;5035284;28;20036;-81
2021/12/28 04:41:27;;;;;;;85.82;39.30;;;52.00;1945.60;;;;;;5033614;28;20030;-78
2021/12/28 04:43:53;;;;;;;84.35;37.30;;;52.00;1868.80;;;;;;5035097;28;20071;-78
2021/12/28 04:46:19;;;;;;;91.03;40.25;;;52.00;2227.20;;;;;;5033354;28;20057;-78
2021/12/28 04:48:44;;;;;;;87.57;41.35;;;52.00;1868.80;;;;;;5049505;28;20024;-78
2021/12/28 04:51:10;;;;;;;108.72;43.65;;;52.00;2227.20;;;;;;5054554;28;20025;-79
2021/12/28 04:53:37;;;;;;;101.45;39.55;;;51.90;1920.00;;;;;;5053018;28;20025;-80
2021/12/28 04:56:03;;;;;;;74.65;38.15;;;52.00;2022.40;;;;;;5053476;28;20048;-80
2021/12/28 04:58:29;;;;;;;76.55;35.97;;;52.00;2073.60;;;;;;5052893;28;20052;-79
2021/12/28 05:00:56;;;;;;;77.35;37.30;;;52.10;1920.00;;;;;;5053577;28;20083;-79
2021/12/28 05:03:22;;;;;;;80.20;37.63;;;52.10;2227.20;;;;;;5042607;28;20037;-80
2021/12/28 05:05:50;;;;;;;81.07;38.28;;;52.10;2227.20;;;;;;5041169;28;20049;-80
2021/12/28 05:08:19;;;;;;;93.45;43.05;;;76.80;2227.20;;;;;;5038087;28;20093;-79
2021/12/28 05:10:46;;;;;;;81.28;40.20;;;76.80;2227.20;;;;;;5034086;28;20096;-78
2021/12/28 05:13:12;;;;;;;98.65;43.47;;;76.80;2227.20;;;;;;5032650;28;20171;-80
2021/12/28 05:15:41;;;;;;;89.90;40.88;;;76.80;2227.20;;;;;;5032965;28;20433;-79
2021/12/28 05:18:08;;;;;;;90.35;44.25;;;76.90;2227.20;;;;;;5032937;28;20030;-78
2021/12/28 05:20:33;;;;;;;81.78;41.95;;;76.90;2227.20;;;;;;5032520;28;20025;-80
2021/12/28 05:22:59;;;;;;;83.93;42.72;;;76.90;2227.20;;;;;;5033215;28;20503;-79
2021/12/28 05:25:25;;;;;;;98.05;43.78;;;76.90;2227.20;;;;;;5036338;28;20029;-79
2021/12/28 05:27:51;;;;;;;89.93;41.70;;;76.90;2227.20;;;;;;5035461;28;20033;-79
2021/12/28 05:30:17;;;;;;;77.97;37.63;;;76.90;2227.20;;;;;;5032529;28;20472;-79
2021/12/28 05:32:43;;;;;;;68.43;34.25;;;76.90;2227.20;;;;;;5032555;28;20108;-79
2021/12/28 05:35:09;;;;;;;83.63;39.15;;;76.90;2227.20;;;;;;5048611;28;20095;-79
2021/12/28 05:37:36;;;;;;;87.10;42.63;;;76.90;2227.20;;;;;;5032743;28;20039;-80
2021/12/28 05:40:03;;;;;;;79.35;41.72;;;76.90;2227.20;;;;;;5032031;28;20114;-79
2021/12/28 05:42:29;;;;;;;97.88;47.80;;;76.90;2227.20;;;;;;5032094;28;20536;-79
2021/12/28 05:44:54;;;;;;;98.20;45.85;;;77.00;2227.20;;;;;;5032450;28;20125;-79
2021/12/28 05:47:20;;;;;;;96.88;41.65;;;77.00;2227.20;;;;;;5039883;28;20414;-79
2021/12/28 05:49:46;;;;;;;114.32;45.22;;;77.00;2227.20;;;;;;5053229;28;20021;-79
2021/12/28 05:52:12;;;;;;;102.20;44.65;;;76.90;2227.20;;;;;;5052978;28;20025;-79
2021/12/28 05:54:38;;;;;;;94.05;42.65;;;76.90;2227.20;;;;;;5051965;28;20044;-78
2021/12/28 05:57:04;;;;;;;91.25;44.08;;;77.00;2227.20;;;;;;5051426;28;20037;-79
2021/12/28 05:59:30;;;;;;;92.57;41.78;;;77.00;2227.20;;;;;;5052091;28;20059;-79
2021/12/28 06:01:56;;;;;;;98.03;40.35;;;76.90;2227.20;;;;;;5052688;28;20032;-78
2021/12/28 06:04:22;;;;;;;85.65;38.70;;;77.00;2227.20;;;;;;5053296;28;20094;-79
2021/12/28 06:06:47;;;;;;;92.80;41.10;;;76.90;2227.20;;;;;;5052758;28;20056;-79
2021/12/28 06:09:13;;;;;;;86.88;41.00;;;76.90;2227.20;;;;;;5052917;28;20490;-79
2021/12/28 06:11:39;;;;;;;89.55;41.72;;;76.90;2227.20;;;;;;5053282;28;20487;-79
2021/12/28 06:14:05;;;;;;;96.28;36.28;;;76.90;2227.20;;;;;;5051485;28;20021;-78
2021/12/28 06:16:32;;;;;;;85.78;38.72;;;76.90;1920.00;;;;;;5051809;28;20393;-79
2021/12/28 06:18:58;;;;;;;88.47;38.92;;;76.90;2022.40;;;;;;5051451;28;20116;-79
2021/12/28 06:21:25;;;;;;;97.22;41.38;;;76.90;2022.40;;;;;;5051768;28;20514;-80
2021/12/28 06:23:51;;;;;;;101.10;46.53;;;76.90;1945.60;;;;;;5052598;28;20483;-79
2021/12/28 06:26:16;;;;;;;89.85;39.22;;;76.90;1971.20;;;;;;5051576;28;20033;-79
2021/12/28 06:28:42;;;;;;;90.80;39.13;;;76.90;2227.20;;;;;;5051371;28;20029;-79
2021/12/28 06:31:08;;;;;;;95.68;40.03;;;76.90;2073.60;;;;;;5052913;28;20025;-79
2021/12/28 06:33:34;;;;;;;92.53;40.85;;;77.00;2124.80;;;;;;5051238;28;20068;-79
2021/12/28 06:35:59;;;;;;;103.97;45.00;;;77.00;1971.20;;;;;;5052090;28;20029;-80
2021/12/28 06:38:25;;;;;;;100.22;42.53;;;77.00;2022.40;;;;;;5051477;28;20472;-80
2021/12/28 06:40:51;;;;;;;88.18;39.90;;;77.00;1996.80;;;;;;5045476;28;20676;-79
2021/12/28 06:43:17;;;;;;;91.88;41.38;;;77.10;2048.00;;;;;;5031364;28;20041;-79
2021/12/28 06:45:43;;;;;;;108.47;49.75;;;77.10;1894.40;;;;;;5032178;28;20033;-79
2021/12/28 06:48:08;;;;;;;131.05;56.85;;;77.10;1843.20;;;;;;5031728;28;20120;-80
2021/12/28 06:50:35;;;;;;;134.98;63.83;;;77.10;1971.20;;;;;;5031005;28;20036;-79
2021/12/28 06:53:01;;;;;;;123.47;55.00;;;77.20;1894.40;;;;;;5032902;28;20033;-79
2021/12/28 06:55:26;;;;;;;111.25;57.67;;;77.20;1868.80;;;;;;5033265;28;20025;-79
2021/12/28 06:57:52;;;;;;;127.43;58.75;;;77.20;1843.20;;;;;;5032600;28;20078;-79
2021/12/28 07:00:19;;;;;;;112.00;54.42;;;77.20;2227.20;;;;;;5033269;28;20030;-80
2021/12/28 07:02:45;;;;;;;106.55;52.20;;;77.20;2227.20;;;;;;5050707;28;20037;-78
2021/12/28 07:05:12;;;;;;;121.60;62.50;;;77.20;2227.20;;;;;;5052068;28;20500;-79
2021/12/28 07:07:39;;;;;;;115.97;59.08;;;77.30;2227.20;;;;;;5049699;28;20036;-79
2021/12/28 07:10:07;;;;;;;111.28;55.97;;;77.40;2227.20;;;;;;5052325;28;20021;-80
2021/12/28 07:12:33;;;;;;;103.68;58.47;;;77.30;2227.20;;;;;;5049946;28;20484;-79
2021/12/28 07:15:00;;;;;;;82.38;46.70;;;77.40;2227.20;;;;;;5051086;28;20052;-79
2021/12/28 07:17:28;;;;;;;74.22;43.15;;;77.40;2227.20;;;;;;5051704;28;20029;-79
2021/12/28 07:19:55;;;;;;;80.97;46.15;;;77.40;2227.20;;;;;;5052130;28;20115;-79
2021/12/28 07:22:21;;;;;;;75.82;45.20;;;77.50;2227.20;;;;;;5030897;28;20033;-80
2021/12/28 07:24:46;;;;;;;77.18;42.80;;;77.50;2227.20;;;;;;5030653;28;20091;-79
2021/12/28 07:27:12;;;;;;;80.28;44.28;;;77.60;2227.20;;;;;;5030817;28;20473;-79
2021/12/28 07:29:38;;;;;;;76.43;42.65;;;77.60;2227.20;;;;;;5030390;28;20034;-79
2021/12/28 07:32:06;;;;;;;79.95;45.13;;;77.60;2227.20;;;;;;5030855;28;20025;-79
2021/12/28 07:34:33;;;;;;;64.57;39.20;;;77.70;2227.20;;;;;;5031960;28;20014;-79
2021/12/28 07:36:58;;;;;;;70.30;40.78;;;77.60;2227.20;;;;;;5030456;28;20048;-79
2021/12/28 07:39:25;;;;;;;67.38;41.67;;;77.70;2227.20;;;;;;5030450;28;20033;-79
2021/12/28 07:41:50;;;;;;;90.03;50.75;;;77.70;2227.20;;;;;;5030797;28;20064;-79
2021/12/28 07:44:16;;;;;;;65.68;39.38;;;77.70;2227.20;;;;;;5031756;28;20053;-79
2021/12/28 07:46:42;;;;;;;72.63;40.80;;;102.40;2227.20;;;;;;5031061;28;20034;-79
2021/12/28 07:49:08;;;;;;;70.72;42.65;;;102.40;2227.20;;;;;;5033724;28;20026;-79
2021/12/28 07:51:34;;;;;;;64.10;37.67;;;102.50;2227.20;;;;;;5034324;28;20079;-79
2021/12/28 07:53:59;;;;;;;64.47;39.28;;;102.50;2227.20;;;;;;5040306;28;20126;-80
2021/12/28 07:56:26;;;;;;;56.47;31.40;;;102.50;2227.20;;;;;;5045044;28;20025;-78
2021/12/28 07:58:51;;;;;;;50.90;29.98;;;102.50;2227.20;;;;;;5042460;28;20025;-79
2021/12/28 08:01:17;;;;;;;45.10;25.90;;;102.40;2227.20;;;;;;5035464;28;20045;-80
2021/12/28 08:03:43;;;;;;;48.53;29.15;;;102.40;2227.20;;;;;;5036888;28;20033;-80
2021/12/28 08:06:09;;;;;;;60.20;34.50;;;102.50;2227.20;;;;;;5037719;28;20045;-80
2021/12/28 08:08:35;;;;;;;55.50;31.48;;;102.60;2227.20;;;;;;5034348;28;20433;-80
2021/12/28 08:11:01;;;;;;;63.60;35.55;;;102.70;2227.20;;;;;;5034055;28;20021;-79
2021/12/28 08:13:28;;;;;;;49.33;30.40;;;102.80;2227.20;;;;;;5035576;28;20380;-80
2021/12/28 08:15:55;;;;;;;49.70;30.02;;;102.80;2227.20;;;;;;5035232;28;20049;-79
2021/12/28 08:18:21;;;;;;;58.13;32.22;;;102.80;2227.20;;;;;;5033806;28;20032;-79
2021/12/28 08:20:46;;;;;;;49.40;29.88;;;102.90;2227.20;;;;;;5049739;28;20115;-80
2021/12/28 08:23:13;;;;;;;45.53;26.92;;;102.90;2227.20;;;;;;5052680;28;20037;-80
2021/12/28 08:25:40;;;;;;;55.13;32.60;;;102.90;2227.20;;;;;;5047944;28;20029;-79
2021/12/28 08:28:06;;;;;;;60.00;36.83;;;102.90;2227.20;;;;;;5047878;28;20036;-80
2021/12/28 08:30:36;;;;;;;50.95;31.55;;;103.00;2227.20;;;;;;5039726;28;20033;-79
2021/12/28 08:33:07;;;;;;;40.83;26.48;;;103.00;2227.20;;;;;;5045506;28;20029;-79
2021/12/28 08:35:33;;;;;;;48.13;30.27;;;103.00;2227.20;;;;;;5045886;28;20036;-80
2021/12/28 08:37:59;;;;;;;62.22;31.02;;;103.00;2227.20;;;;;;5042738;28;20476;-79
2021/12/28 08:40:25;;;;;;;61.03;35.13;;;103.00;2227.20;;;;;;5042782;28;20036;-79
2021/12/28 08:42:52;;;;;;;52.65;30.00;;;103.10;2227.20;;;;;;5044515;28;20045;-80
2021/12/28 08:45:18;;;;;;;49.88;32.78;;;103.10;2227.20;;;;;;5045663;28;20021;-79
2021/12/28 08:47:46;;;;;;;52.20;30.38;;;103.30;2227.20;;;;;;5032164;28;20449;-79
2021/12/28 08:50:12;;;;;;;48.30;28.27;;;103.20;2227.20;;;;;;5053292;28;20361;-80
2021/12/28 08:52:38;;;;;;;41.58;26.08;;;103.20;2227.20;;;;;;5053649;28;20079;-80
2021/12/28 08:55:05;;;;;;;56.63;34.33;;;103.20;2227.20;;;;;;5048156;28;20809;-80
2021/12/28 08:57:31;;;;;;;47.53;28.40;;;103.30;2227.20;;;;;;5046261;28;20105;-80
2021/12/28 08:59:57;;;;;;;47.92;31.52;;;103.30;2227.20;;;;;;5044114;28;20104;-80
2021/12/28 09:02:23;;;;;;;43.47;27.55;;;103.20;2227.20;;;;;;5040888;28;20025;-81
2021/12/28 09:04:49;;;;;;;38.90;25.00;;;103.20;2227.20;;;;;;5042928;28;20052;-80
2021/12/28 09:07:16;;;;;;;37.85;22.52;;;103.30;2227.20;;;;;;5041790;28;20135;-80
2021/12/28 09:09:43;;;;;;;36.45;21.27;;;103.20;2227.20;;;;;;5047095;28;20112;-79
2021/12/28 09:12:10;;;;;;;33.65;20.33;;;103.30;2227.20;;;;;;5041038;28;20018;-80
2021/12/28 09:14:36;;;;;;;44.92;27.88;;;103.20;2227.20;;;;;;5037519;28;20397;-80
2021/12/28 09:17:03;;;;;;;41.85;24.63;;;103.20;2227.20;;;;;;5045021;28;20559;-81
2021/12/28 09:19:30;;;;;;;40.33;27.83;;;103.20;2227.20;;;;;;5037774;28;20057;-81
2021/12/28 09:21:56;;;;;;;40.30;24.88;;;128.00;2252.80;;;;;;5036641;28;20025;-80
2021/12/28 09:24:21;;;;;;;48.00;29.48;;;128.00;2252.80;;;;;;5050327;28;20033;-81
2021/12/28 09:26:47;;;;;;;38.83;22.15;;;128.00;2252.80;;;;;;5052683;28;20021;-81
2021/12/28 09:29:13;;;;;;;40.97;23.67;;;128.00;2252.80;;;;;;5052628;28;20373;-80
2021/12/28 09:31:39;;;;;;;43.95;27.95;;;128.00;2252.80;;;;;;5052237;28;20673;-81
2021/12/28 09:34:05;;;;;;;42.47;29.08;;;103.30;2227.20;;;;;;5052250;28;20033;-81
2021/12/28 09:36:31;;;;;;;44.20;29.15;;;128.00;2252.80;;;;;;5052859;28;20033;-81
2021/12/28 09:38:56;;;;;;;53.75;34.50;;;128.00;2252.80;;;;;;5049092;28;20067;-81
2021/12/28 09:41:22;;;;;;;37.40;24.40;;;128.00;2252.80;;;;;;5054245;28;20052;-81
2021/12/28 09:43:48;;;;;;;34.45;20.90;;;128.10;2252.80;;;;;;5049424;28;20442;-81
2021/12/28 09:46:15;;;;;;;42.00;26.70;;;128.10;2252.80;;;;;;5043985;28;20464;-81
2021/12/28 09:48:40;;;;;;;43.03;28.80;;;128.10;2252.80;;;;;;5052579;28;20036;-81
2021/12/28 09:51:08;;;;;;;41.78;26.33;;;128.10;2252.80;;;;;;5041991;28;20108;-81
2021/12/28 09:53:35;;;;;;;45.92;27.25;;;128.10;2252.80;;;;;;5032712;28;20017;-81
2021/12/28 09:56:02;;;;;;;47.83;29.10;;;128.20;2252.80;;;;;;5033556;28;20025;-81
2021/12/28 09:58:28;;;;;;;48.45;30.10;;;128.40;2252.80;;;;;;5033747;28;20396;-81
2021/12/28 10:00:54;;;;;;;53.60;33.60;;;128.30;2252.80;;;;;;5053395;28;20025;-81
2021/12/28 10:03:20;;;;;;;51.83;28.13;;;128.20;2252.80;;;;;;5037242;28;20440;-81
2021/12/28 10:05:45;;;;;;;52.17;27.35;;;128.20;2252.80;;;;;;5032636;28;20115;-81
2021/12/28 10:08:13;;;;;;;49.05;31.20;;;128.20;2252.80;;;;;;5034700;28;20026;-81
2021/12/28 10:10:42;;;;;;;43.90;29.30;;;128.10;2252.80;;;;;;5038496;28;20021;-82
2021/12/28 10:13:19;;;;;;;42.03;24.42;;;128.20;2252.80;;;;;;5039863;28;20022;-81
2021/12/28 10:15:46;;;;;;;40.08;25.50;;;128.10;2252.80;;;;;;5043688;28;20056;-82
2021/12/28 10:18:13;;;;;;;39.95;25.10;;;128.10;2252.80;;;;;;5041473;28;20017;-82
2021/12/28 10:21:01;;;;;;;47.92;28.38;;;128.00;2252.80;;;;;;5040314;28;20025;-81
2021/12/28 10:23:30;;;;;;;51.85;30.98;;;128.10;2252.80;;;;;;5041673;28;20028;-81
2021/12/28 10:26:00;;;;;;;46.53;29.33;;;128.10;2252.80;;;;;;5039766;28;20079;-81
2021/12/28 10:28:34;;;;;;;45.28;29.52;;;128.10;2252.80;;;;;;5042195;28;20013;-81
2021/12/28 10:31:06;;;;;;;45.85;30.13;;;128.10;2252.80;;;;;;5039170;28;20094;-81
2021/12/28 10:33:36;;;;;;;73.53;37.42;;;128.20;2252.80;;;;;;5039565;28;20053;-81
2021/12/28 10:36:13;;;;;;;80.90;44.20;;;128.20;2252.80;;;;;;5039215;28;20021;-81
2021/12/28 10:38:49;;;;;;;68.88;41.97;;;128.30;2252.80;;;;;;5038985;28;20025;-80
2021/12/28 10:41:18;;;;;;;53.08;31.95;;;128.40;2252.80;;;;;;5042631;28;20087;-80
2021/12/28 10:43:46;;;;;;;50.50;31.38;;;128.30;2252.80;;;;;;5032243;28;20052;-80
2021/12/28 10:46:16;;;;;;;51.67;30.83;;;128.20;2252.80;;;;;;5040946;28;20101;-81
2021/12/28 10:48:48;;;;;;;52.88;33.55;;;128.20;2252.80;;;;;;5039847;28;20029;-81
2021/12/28 10:51:20;;;;;;;50.65;32.20;;;128.20;2252.80;;;;;;5040522;28;20024;-81
2021/12/28 10:54:00;;;;;;;60.05;36.72;;;128.10;2252.80;;;;;;5042273;28;20061;-81
2021/12/28 10:56:33;;;;;;;65.40;38.15;;;128.20;2252.80;;;;;;5043005;28;20029;-81
2021/12/28 10:58:59;;;;;;;53.08;34.08;;;128.20;2252.80;;;;;;5033089;28;20128;-80
2021/12/28 11:01:33;;;;;;;66.05;40.22;;;128.30;2252.80;;;;;;5036374;28;20041;-79
2021/12/28 11:04:04;;;;;;;66.53;37.72;;;128.30;2252.80;;;;;;5039160;28;20570;-81
2021/12/28 11:06:33;;;;;;;58.78;36.40;;;128.30;2252.80;;;;;;5040447;28;20049;-80
2021/12/28 11:09:28;;;;;;;68.53;41.10;;;128.30;2252.80;;;;;;5037230;28;20021;-81
2021/12/28 11:11:55;;;;;;;66.47;38.92;;;128.30;2252.80;;;;;;5018063;28;20169;-81
2021/12/28 11:14:29;;;;;;;58.55;37.92;;;128.40;2252.80;;;;;;5000194;28;20018;-81
2021/12/28 11:17:05;;;;;;;63.72;38.90;;;128.30;2252.80;;;;;;5011577;28;20046;-81
2021/12/28 11:19:36;;;;;;;68.07;42.92;;;128.30;2252.80;;;;;;5009490;28;20037;-81
2021/12/28 11:22:05;;;;;;;52.38;33.72;;;128.30;2252.80;;;;;;5017631;28;20117;-81
2021/12/28 11:24:39;;;;;;;65.10;38.17;;;128.30;2252.80;;;;;;5018316;28;20112;-81
2021/12/28 11:27:05;;;;;;;61.83;37.22;;;128.30;2252.80;;;;;;5019068;28;20127;-81
2021/12/28 11:29:36;;;;;;;67.18;40.33;;;128.30;2252.80;;;;;;5006588;28;20033;-81
2021/12/28 11:32:13;;;;;;;73.80;43.13;;;128.30;2252.80;;;;;;5014679;28;20018;-81
2021/12/28 11:34:40;;;;;;;63.50;38.65;;;128.40;2252.80;;;;;;5019487;28;20559;-81
2021/12/28 11:37:12;;;;;;;90.38;49.08;;;128.50;2252.80;;;;;;5018527;28;20037;-81
2021/12/28 11:39:51;;;;;;;80.93;42.10;;;128.70;2252.80;;;;;;4997859;28;20057;-81
2021/12/28 11:42:19;;;;;;;80.45;46.20;;;128.50;2252.80;;;;;;5021154;28;20034;-81
2021/12/28 11:44:46;;;;;;;74.72;43.88;;;128.60;2252.80;;;;;;5017720;28;20487;-81
2021/12/28 11:47:15;;;;;;;74.57;40.70;;;128.50;2252.80;;;;;;5018070;28;20026;-79
2021/12/28 11:49:42;;;;;;;73.55;40.50;;;128.40;2252.80;;;;;;5034446;28;20051;-81
2021/12/28 11:52:13;;;;;;;85.60;43.58;;;128.40;2252.80;;;;;;5046576;28;20017;-82
2021/12/28 11:54:44;;;;;;;82.63;45.85;;;128.40;2252.80;;;;;;5040820;28;20053;-81
2021/12/28 11:57:30;;;;;;;82.55;48.28;;;128.30;2252.80;;;;;;5035161;28;20045;-81
2021/12/28 11:59:58;;;;;;;73.25;43.38;;;128.20;2252.80;;;;;;5037346;28;20033;-81
2021/12/28 12:02:38;;;;;;;69.75;39.70;;;128.20;2252.80;;;;;;5041222;28;20065;-82
2021/12/28 12:05:24;;;;;;;81.03;41.95;;;128.30;2252.80;;;;;;5039600;28;20020;-81
2021/12/28 12:08:11;;;;;;;74.03;41.95;;;128.20;2252.80;;;;;;5038900;28;20511;-80
2021/12/28 12:10:40;;;;;;;72.15;41.00;;;128.30;2252.80;;;;;;5032546;28;20021;-81